createdAt,value
2022-12-16T00:01:25.304Z,41.55
2022-12-16T00:03:55.261Z,42.53
2022-12-16T00:06:25.517Z,40.15
2022-12-16T00:08:53.661Z,41.35
2022-12-16T00:11:22.235Z,35.70
2022-12-16T00:13:49.668Z,32.13
2022-12-16T00:16:19.920Z,28.27
2022-12-16T00:18:48.102Z,30.48
2022-12-16T00:21:18.724Z,30.80
2022-12-16T00:23:46.942Z,30.08
2022-12-16T00:26:14.522Z,27.52
2022-12-16T00:28:44.103Z,26.60
2022-12-16T00:31:11.905Z,28.13
2022-12-16T00:33:39.370Z,26.27
2022-12-16T00:36:07.278Z,21.73
2022-12-16T00:38:35.802Z,22.85
2022-12-16T00:41:03.616Z,22.23
2022-12-16T00:43:31.338Z,18.67
2022-12-16T00:45:59.110Z,20.15
2022-12-16T00:48:27.503Z,22.50
2022-12-16T00:50:55.733Z,17.85
2022-12-16T00:53:24.621Z,18.50
2022-12-16T00:55:53.292Z,21.98
2022-12-16T00:58:21.059Z,19.65
2022-12-16T01:00:48.375Z,20.40
2022-12-16T01:03:21.357Z,16.52
2022-12-16T01:05:49.554Z,16.05
2022-12-16T01:08:17.028Z,16.80
2022-12-16T01:10:55.320Z,15.60
2022-12-16T01:13:24.980Z,12.85
2022-12-16T01:15:52.775Z,16.73
2022-12-16T01:18:20.485Z,17.00
2022-12-16T01:20:47.810Z,15.50
2022-12-16T01:23:15.168Z,17.83
2022-12-16T01:25:42.464Z,14.05
2022-12-16T01:28:10.098Z,12.52
2022-12-16T01:30:37.595Z,14.38
2022-12-16T01:33:05.129Z,13.70
2022-12-16T01:38:20.466Z,17.85
2022-12-16T01:40:47.756Z,11.30
2022-12-16T01:43:16.705Z,16.92
2022-12-16T01:45:44.259Z,12.43
2022-12-16T01:48:27.692Z,13.00
2022-12-16T01:51:01.977Z,18.48
2022-12-16T01:53:31.192Z,14.43
2022-12-16T01:56:01.196Z,9.27
2022-12-16T01:58:33.852Z,9.82
2022-12-16T02:01:03.939Z,10.57
2022-12-16T02:03:35.328Z,13.55
2022-12-16T02:06:05.711Z,12.20
2022-12-16T02:08:33.295Z,11.88
2022-12-16T02:11:03.644Z,11.25
2022-12-16T02:13:34.441Z,11.40
2022-12-16T02:16:17.322Z,10.00
2022-12-16T02:18:47.902Z,11.88
2022-12-16T02:21:22.567Z,13.38
2022-12-16T02:24:27.346Z,10.60
2022-12-16T02:27:18.602Z,12.68
2022-12-16T02:30:21.580Z,9.30
2022-12-16T02:33:00.845Z,7.93
2022-12-16T02:35:45.439Z,8.15
2022-12-16T02:38:27.664Z,9.70
2022-12-16T02:41:03.927Z,11.77
2022-12-16T02:43:39.223Z,9.95
2022-12-16T02:46:08.545Z,9.07
2022-12-16T02:48:35.957Z,9.93
2022-12-16T02:51:03.521Z,8.68
2022-12-16T02:53:35.844Z,10.02
2022-12-16T02:56:06.419Z,9.07
2022-12-16T02:58:57.238Z,7.10
2022-12-16T03:01:42.976Z,10.30
2022-12-16T03:04:16.500Z,8.60
2022-12-16T03:06:49.471Z,7.63
2022-12-16T03:09:22.484Z,9.45
2022-12-16T03:11:51.926Z,7.72
2022-12-16T03:14:23.317Z,5.93
2022-12-16T03:16:51.644Z,7.47
2022-12-16T03:19:20.958Z,8.10
2022-12-16T03:22:27.489Z,10.65
2022-12-16T03:24:54.906Z,5.80
2022-12-16T03:27:48.855Z,5.88
2022-12-16T03:30:47.887Z,8.90
2022-12-16T03:33:40.404Z,5.97
2022-12-16T03:36:13.093Z,7.82
2022-12-16T03:38:41.764Z,6.88
2022-12-16T03:41:09.617Z,6.82
2022-12-16T03:43:38.002Z,5.07
2022-12-16T03:46:08.012Z,6.40
2022-12-16T03:48:35.493Z,5.75
2022-12-16T03:51:03.392Z,8.23
2022-12-16T03:53:31.154Z,5.82
2022-12-16T03:55:58.719Z,6.15
2022-12-16T03:58:25.980Z,5.68
2022-12-16T04:00:53.557Z,5.65
2022-12-16T04:03:23.090Z,7.32
2022-12-16T04:05:50.493Z,8.45
2022-12-16T04:08:17.911Z,7.72
2022-12-16T04:11:03.532Z,7.30
2022-12-16T04:13:53.960Z,6.25
2022-12-16T04:16:40.140Z,8.23
2022-12-16T04:19:36.375Z,5.57
2022-12-16T04:22:22.427Z,6.55
2022-12-16T04:24:49.969Z,6.00
2022-12-16T04:27:27.953Z,7.28
2022-12-16T04:30:14.070Z,8.13
2022-12-16T04:33:00.132Z,5.88
2022-12-16T04:35:45.878Z,5.13
2022-12-16T04:38:31.620Z,7.43
2022-12-16T04:41:17.445Z,7.40
2022-12-16T04:44:03.383Z,5.32
2022-12-16T04:46:49.189Z,5.90
2022-12-16T04:49:34.923Z,9.48
2022-12-16T04:52:20.963Z,6.93
2022-12-16T04:55:06.540Z,9.57
2022-12-16T04:57:52.127Z,7.60
2022-12-16T05:00:38.598Z,6.25
2022-12-16T05:03:24.241Z,5.00
2022-12-16T05:06:10.124Z,6.85
2022-12-16T05:08:55.764Z,4.53
2022-12-16T05:11:41.412Z,9.60
2022-12-16T05:14:27.479Z,7.32
2022-12-16T05:17:13.397Z,6.32
2022-12-16T05:19:59.125Z,5.90
2022-12-16T05:22:45.486Z,11.63
2022-12-16T05:25:31.052Z,8.07
2022-12-16T05:28:17.012Z,9.65
2022-12-16T05:31:02.574Z,9.32
2022-12-16T05:33:48.692Z,6.95
2022-12-16T05:36:34.236Z,10.48
2022-12-16T05:39:20.387Z,8.57
2022-12-16T05:42:06.189Z,7.38
2022-12-16T05:44:51.750Z,8.13
2022-12-16T05:47:38.820Z,7.63
2022-12-16T05:50:25.878Z,9.68
2022-12-16T05:53:17.572Z,6.45
2022-12-16T05:56:03.712Z,11.25
2022-12-16T05:58:49.258Z,9.27
2022-12-16T06:01:35.418Z,10.05
2022-12-16T06:04:21.279Z,8.60
2022-12-16T06:07:07.011Z,9.35
2022-12-16T06:09:56.587Z,9.57
2022-12-16T06:12:43.464Z,8.43
2022-12-16T06:15:29.955Z,7.60
2022-12-16T06:18:16.654Z,11.95
2022-12-16T06:21:02.711Z,9.90
2022-12-16T06:23:48.348Z,13.90
2022-12-16T06:26:34.224Z,7.53
2022-12-16T06:29:20.192Z,9.68
2022-12-16T06:32:06.091Z,7.95
2022-12-16T06:34:51.743Z,10.05
2022-12-16T06:37:37.529Z,14.23
2022-12-16T06:40:23.947Z,12.38
2022-12-16T06:43:09.940Z,13.98
2022-12-16T06:46:03.165Z,15.82
2022-12-16T06:48:48.837Z,11.90
2022-12-16T06:51:34.518Z,14.10
2022-12-16T06:54:20.267Z,12.75
2022-12-16T06:57:07.061Z,10.60
2022-12-16T06:59:53.107Z,15.50
2022-12-16T07:02:38.929Z,16.60
2022-12-16T07:05:25.321Z,18.60
2022-12-16T07:08:11.474Z,13.82
2022-12-16T07:11:04.862Z,23.58
2022-12-16T07:14:02.663Z,16.83
2022-12-16T07:16:49.033Z,18.23
2022-12-16T07:19:35.381Z,10.52
2022-12-16T07:22:21.191Z,14.00
2022-12-16T07:25:06.969Z,12.57
2022-12-16T07:27:52.740Z,12.13
2022-12-16T07:30:38.557Z,13.43
2022-12-16T07:33:24.358Z,15.85
2022-12-16T07:36:12.094Z,13.73
2022-12-16T07:38:57.787Z,15.52
2022-12-16T07:41:43.768Z,12.30
2022-12-16T07:44:29.558Z,13.57
2022-12-16T07:47:15.309Z,17.98
2022-12-16T07:50:01.186Z,15.02
2022-12-16T07:52:46.936Z,14.20
2022-12-16T07:55:32.520Z,15.52
2022-12-16T07:58:20.656Z,14.75
2022-12-16T08:01:09.639Z,13.40
2022-12-16T08:03:56.054Z,19.42
2022-12-16T08:06:42.110Z,23.00
2022-12-16T08:09:27.893Z,22.08
2022-12-16T08:12:21.357Z,21.65
2022-12-16T08:15:07.096Z,27.05
2022-12-16T08:17:53.070Z,22.55
2022-12-16T08:20:41.679Z,24.70
2022-12-16T08:23:27.321Z,24.27
2022-12-16T08:26:12.907Z,22.17
2022-12-16T08:29:05.519Z,24.73
2022-12-16T08:32:04.316Z,17.02
2022-12-16T08:34:50.219Z,19.60
2022-12-16T08:37:36.807Z,14.77
2022-12-16T08:40:35.367Z,9.60
2022-12-16T08:43:22.514Z,14.15
2022-12-16T08:46:13.162Z,9.95
2022-12-16T08:48:59.008Z,15.60
2022-12-16T08:51:44.669Z,13.75
2022-12-16T08:54:30.777Z,12.43
2022-12-16T08:57:16.949Z,13.93
2022-12-16T09:00:04.626Z,9.32
2022-12-16T09:02:50.976Z,16.50
2022-12-16T09:05:37.178Z,11.75
2022-12-16T09:08:23.407Z,8.93
2022-12-16T09:11:09.476Z,9.52
2022-12-16T09:13:55.180Z,12.43
2022-12-16T09:16:41.155Z,10.05
2022-12-16T09:19:26.947Z,13.15
2022-12-16T09:22:12.857Z,12.25
2022-12-16T09:24:58.764Z,11.82
2022-12-16T09:27:44.422Z,11.00
2022-12-16T09:30:30.441Z,10.63
2022-12-16T09:33:16.463Z,12.65
2022-12-16T09:36:02.284Z,11.95
2022-12-16T09:38:48.274Z,15.73
2022-12-16T09:41:45.335Z,17.02
2022-12-16T09:44:34.071Z,13.18
2022-12-16T09:47:41.477Z,18.70
2022-12-16T09:51:01.176Z,18.80
2022-12-16T09:53:49.984Z,12.50
2022-12-16T09:56:41.314Z,17.65
2022-12-16T09:59:32.738Z,19.57
2022-12-16T10:02:19.579Z,29.58
2022-12-16T10:05:10.863Z,18.35
2022-12-16T10:08:04.152Z,17.83
2022-12-16T10:10:57.260Z,17.13
2022-12-16T10:13:48.008Z,21.77
2022-12-16T10:16:52.598Z,19.98
2022-12-16T10:20:10.426Z,22.63
2022-12-16T10:22:58.895Z,18.38
2022-12-16T10:25:57.856Z,17.95
2022-12-16T10:29:05.691Z,18.52
2022-12-16T10:31:53.130Z,17.25
2022-12-16T10:34:59.739Z,14.95
2022-12-16T10:37:54.792Z,17.88
2022-12-16T10:40:51.286Z,17.83
2022-12-16T10:44:01.919Z,9.05
2022-12-16T10:46:53.011Z,21.23
2022-12-16T10:52:31.026Z,14.02
2022-12-16T10:55:25.535Z,23.20
2022-12-16T10:58:35.501Z,13.32
2022-12-16T11:01:43.509Z,20.75
2022-12-16T11:05:01.742Z,13.77
2022-12-16T11:07:57.951Z,13.15
2022-12-16T11:11:02.124Z,52.70
2022-12-16T11:13:51.749Z,17.60
2022-12-16T11:16:43.765Z,13.48
2022-12-16T11:19:48.793Z,21.33
2022-12-16T11:22:34.594Z,18.10
2022-12-16T11:25:35.050Z,143.70
2022-12-16T11:28:35.310Z,16.25
2022-12-16T11:31:32.520Z,10.60
2022-12-16T11:34:21.267Z,13.90
2022-12-16T11:37:10.901Z,18.15
2022-12-16T11:39:58.491Z,13.32
2022-12-16T11:42:51.650Z,14.07
2022-12-16T11:45:39.761Z,11.35
2022-12-16T11:48:41.763Z,10.05
2022-12-16T11:51:33.447Z,13.48
2022-12-16T11:54:33.673Z,18.98
2022-12-16T11:57:22.437Z,13.23
2022-12-16T12:00:17.245Z,13.32
2022-12-16T12:03:25.166Z,14.13
2022-12-16T12:06:26.274Z,14.00
2022-12-16T12:09:34.537Z,18.83
2022-12-16T12:12:36.319Z,32.30
2022-12-16T12:15:24.924Z,15.60
2022-12-16T12:18:27.874Z,13.88
2022-12-16T12:21:44.109Z,13.45
2022-12-16T12:24:51.385Z,18.08
2022-12-16T12:27:55.365Z,15.85
2022-12-16T12:30:42.307Z,11.40
2022-12-16T12:33:43.389Z,17.67
2022-12-16T12:36:48.531Z,12.23
2022-12-16T12:39:54.645Z,21.65
2022-12-16T12:42:49.985Z,15.90
2022-12-16T12:45:41.965Z,12.95
2022-12-16T12:48:40.094Z,15.43
2022-12-16T12:51:25.894Z,13.80
2022-12-16T12:54:32.919Z,17.55
2022-12-16T12:57:23.156Z,20.35
2022-12-16T13:00:25.121Z,12.15
2022-12-16T13:06:00.786Z,20.15
2022-12-16T13:09:10.056Z,17.70
2022-12-16T13:11:57.126Z,19.52
2022-12-16T13:14:52.958Z,12.30
2022-12-16T13:17:40.003Z,18.85
2022-12-16T13:20:50.731Z,15.02
2022-12-16T13:23:46.415Z,19.27
2022-12-16T13:26:34.865Z,18.45
2022-12-16T13:29:44.175Z,14.73
2022-12-16T13:32:44.758Z,15.35
2022-12-16T13:35:30.835Z,17.48
2022-12-16T13:38:18.213Z,14.43
2022-12-16T13:41:24.347Z,25.30
2022-12-16T13:44:16.642Z,37.72
2022-12-16T13:49:55.209Z,17.10
2022-12-16T13:53:16.495Z,15.65
2022-12-16T13:56:15.155Z,17.85
2022-12-16T13:59:04.929Z,20.00
2022-12-16T14:02:20.346Z,22.73
2022-12-16T14:05:12.572Z,18.27
2022-12-16T14:07:59.777Z,13.60
2022-12-16T14:10:50.735Z,28.17
2022-12-16T14:13:53.761Z,24.08
2022-12-16T14:17:08.867Z,14.27
2022-12-16T14:19:57.633Z,14.27
2022-12-16T14:23:07.514Z,21.48
2022-12-16T14:25:53.775Z,17.80
2022-12-16T14:28:57.335Z,22.25
2022-12-16T14:31:52.881Z,19.90
2022-12-16T14:34:46.607Z,20.73
2022-12-16T14:37:47.963Z,22.25
2022-12-16T14:40:40.850Z,15.00
2022-12-16T14:43:37.864Z,22.83
2022-12-16T14:46:24.491Z,20.13
2022-12-16T14:49:11.161Z,21.50
2022-12-16T14:52:04.878Z,105.80
2022-12-16T14:54:54.365Z,17.00
2022-12-16T14:57:51.193Z,23.67
2022-12-16T15:00:39.510Z,19.95
2022-12-16T15:03:37.641Z,18.52
2022-12-16T15:06:28.492Z,17.83
2022-12-16T15:09:17.457Z,17.73
2022-12-16T15:12:04.282Z,20.42
2022-12-16T15:14:52.943Z,24.80
2022-12-16T15:17:44.135Z,21.20
2022-12-16T15:20:38.796Z,24.13
2022-12-16T15:23:37.782Z,14.52
2022-12-16T15:26:24.576Z,17.52
2022-12-16T15:29:10.644Z,21.75
2022-12-16T15:32:03.159Z,21.63
2022-12-16T15:35:05.060Z,44.80
2022-12-16T15:38:04.122Z,22.52
2022-12-16T15:40:52.069Z,21.33
2022-12-16T15:43:46.368Z,21.75
2022-12-16T15:46:44.070Z,15.90
2022-12-16T15:50:11.486Z,21.13
2022-12-16T15:53:01.191Z,22.70
2022-12-16T15:56:04.687Z,37.97
2022-12-16T15:58:53.651Z,14.32
2022-12-16T16:01:41.981Z,17.15
2022-12-16T16:04:47.230Z,20.90
2022-12-16T16:07:41.207Z,15.27
2022-12-16T16:10:44.210Z,14.43
2022-12-16T16:13:30.144Z,25.48
2022-12-16T16:16:26.972Z,33.22
2022-12-16T16:19:13.121Z,23.30
2022-12-16T16:21:58.589Z,16.70
2022-12-16T16:24:44.198Z,105.75
2022-12-16T16:27:32.098Z,70.53
2022-12-16T16:30:19.232Z,49.20
2022-12-16T16:33:05.329Z,92.45
2022-12-16T16:35:52.367Z,69.22
2022-12-16T16:38:37.975Z,35.13
2022-12-16T16:41:24.098Z,33.08
2022-12-16T16:44:12.873Z,69.05
2022-12-16T16:47:00.868Z,153.25
2022-12-16T16:49:51.241Z,78.13
2022-12-16T16:52:39.535Z,44.88
2022-12-16T16:55:26.917Z,136.02
2022-12-16T16:58:12.728Z,141.82
2022-12-16T17:00:58.832Z,88.95
2022-12-16T17:03:44.968Z,75.03
2022-12-16T17:06:30.909Z,50.38
2022-12-16T17:09:16.818Z,28.45
2022-12-16T17:12:13.304Z,34.90
2022-12-16T17:14:59.217Z,35.72
2022-12-16T17:17:45.111Z,32.08
2022-12-16T17:20:35.834Z,41.72
2022-12-16T17:23:21.735Z,33.65
2022-12-16T17:26:07.645Z,43.60
2022-12-16T17:28:53.604Z,30.27
2022-12-16T17:31:39.707Z,85.90
2022-12-16T17:34:25.475Z,55.78
2022-12-16T17:37:31.330Z,64.88
2022-12-16T17:40:17.281Z,73.93
2022-12-16T17:43:02.959Z,53.85
2022-12-16T17:45:49.314Z,47.83
2022-12-16T17:48:54.890Z,42.63
2022-12-16T17:51:40.772Z,36.88
2022-12-16T17:54:29.559Z,35.30
2022-12-16T17:57:15.846Z,35.67
2022-12-16T18:00:01.752Z,44.13
2022-12-16T18:02:58.694Z,29.20
2022-12-16T18:05:45.038Z,31.98
2022-12-16T18:08:31.047Z,22.20
2022-12-16T18:11:17.570Z,34.45
2022-12-16T18:14:03.155Z,29.27
2022-12-16T18:16:49.536Z,28.65
2022-12-16T18:19:36.289Z,27.15
2022-12-16T18:22:22.694Z,29.58
2022-12-16T18:25:08.622Z,36.40
2022-12-16T18:27:55.745Z,38.88
2022-12-16T18:30:41.651Z,53.08
2022-12-16T18:33:27.845Z,55.13
2022-12-16T18:36:13.773Z,48.45
2022-12-16T18:38:59.623Z,55.45
2022-12-16T18:41:48.574Z,64.43
2022-12-16T18:44:35.580Z,270.95
2022-12-16T18:47:21.154Z,91.45
2022-12-16T18:50:07.038Z,82.40
2022-12-16T18:52:52.885Z,58.67
2022-12-16T18:55:38.522Z,70.93
2022-12-16T19:01:30.747Z,74.13
2022-12-16T19:04:17.283Z,71.60
2022-12-16T19:07:04.132Z,60.10
2022-12-16T19:09:50.071Z,71.05
2022-12-16T19:12:35.862Z,96.47
2022-12-16T19:15:21.630Z,63.88
2022-12-16T19:18:07.601Z,67.22
2022-12-16T19:20:53.561Z,59.28
2022-12-16T19:23:39.442Z,80.30
2022-12-16T19:26:25.348Z,71.55
2022-12-16T19:29:11.367Z,62.88
2022-12-16T19:31:57.073Z,53.92
2022-12-16T19:34:42.726Z,39.10
2022-12-16T19:37:28.554Z,36.20
2022-12-16T19:40:14.650Z,43.58
2022-12-16T19:43:00.874Z,43.05
2022-12-16T19:45:46.729Z,40.17
2022-12-16T19:48:32.514Z,40.40
2022-12-16T19:51:20.644Z,29.02
2022-12-16T19:54:07.487Z,36.10
2022-12-16T19:56:55.280Z,41.00
2022-12-16T19:59:41.132Z,44.13
2022-12-16T20:02:30.256Z,58.25
2022-12-16T20:05:16.420Z,120.95
2022-12-16T20:08:02.234Z,96.63
2022-12-16T20:10:48.100Z,73.88
2022-12-16T20:13:34.070Z,81.38
2022-12-16T20:16:24.947Z,91.63
2022-12-16T20:22:26.123Z,126.25
2022-12-16T20:25:11.923Z,85.50
2022-12-16T20:28:17.154Z,85.63
2022-12-16T20:31:06.329Z,112.53
2022-12-16T20:33:53.846Z,133.13
2022-12-16T20:36:44.217Z,97.47
2022-12-16T20:39:29.913Z,72.10
2022-12-16T20:42:15.764Z,46.22
2022-12-16T20:45:01.464Z,33.17
2022-12-16T20:47:47.187Z,39.50
2022-12-16T20:50:32.923Z,35.28
2022-12-16T20:53:18.460Z,29.13
2022-12-16T20:56:04.406Z,27.63
2022-12-16T20:58:50.314Z,44.42
2022-12-16T21:01:36.156Z,46.92
2022-12-16T21:04:22.087Z,46.97
2022-12-16T21:07:07.908Z,43.72
2022-12-16T21:09:53.572Z,62.45
2022-12-16T21:12:42.007Z,49.03
2022-12-16T21:15:28.442Z,78.88
2022-12-16T21:18:19.473Z,50.72
2022-12-16T21:21:14.363Z,55.78
2022-12-16T21:24:00.215Z,40.33
2022-12-16T21:26:45.995Z,37.90
2022-12-16T21:29:31.819Z,32.25
2022-12-16T21:32:17.792Z,38.13
2022-12-16T21:35:03.490Z,48.40
2022-12-16T21:37:49.398Z,41.60
2022-12-16T21:40:35.402Z,41.78
2022-12-16T21:43:21.347Z,38.00
2022-12-16T21:46:13.393Z,42.30
2022-12-16T21:48:59.046Z,45.33
2022-12-16T21:51:44.772Z,49.42
2022-12-16T21:54:30.632Z,48.80
2022-12-16T21:57:16.631Z,46.80
2022-12-16T22:00:02.177Z,49.10
2022-12-16T22:02:56.543Z,73.00
2022-12-16T22:05:42.501Z,61.88
2022-12-16T22:08:29.603Z,59.72
2022-12-16T22:11:15.392Z,53.72
2022-12-16T22:14:01.201Z,83.93
2022-12-16T22:16:46.844Z,58.85
2022-12-16T22:19:32.445Z,52.53
2022-12-16T22:22:18.295Z,46.95
2022-12-16T22:25:10.959Z,51.65
2022-12-16T22:27:59.730Z,39.97
2022-12-16T22:30:46.916Z,52.33
2022-12-16T22:33:32.649Z,266.48
2022-12-16T22:36:23.586Z,297.70
2022-12-16T22:39:09.349Z,84.40
2022-12-16T22:41:56.104Z,63.70
2022-12-16T22:44:42.006Z,62.53
2022-12-16T22:47:27.747Z,52.25
2022-12-16T22:50:13.396Z,43.25
2022-12-16T22:52:59.285Z,53.47
2022-12-16T22:55:45.087Z,60.75
2022-12-16T22:58:31.797Z,345.27
2022-12-16T23:01:17.626Z,163.05
2022-12-16T23:04:03.719Z,75.47
2022-12-16T23:06:49.472Z,72.85
2022-12-16T23:09:35.310Z,68.38
2022-12-16T23:12:21.442Z,56.75
2022-12-16T23:15:07.014Z,56.72
2022-12-16T23:17:52.803Z,59.88
2022-12-16T23:20:42.209Z,53.10
2022-12-16T23:23:28.325Z,46.65
2022-12-16T23:26:16.269Z,44.35
2022-12-16T23:29:02.721Z,40.47
2022-12-16T23:31:48.693Z,34.03
2022-12-16T23:34:34.251Z,32.55
2022-12-16T23:37:20.117Z,46.22
2022-12-16T23:40:06.054Z,30.58
2022-12-16T23:42:51.822Z,33.88
2022-12-16T23:45:37.564Z,42.83
2022-12-16T23:48:25.760Z,37.92
2022-12-16T23:51:11.579Z,37.13
2022-12-16T23:53:57.873Z,29.98
2022-12-16T23:56:44.095Z,27.13
2022-12-16T23:59:30.056Z,23.70
